createdAt,value
2023-03-30T00:00:48.300Z,2.44
2023-03-30T00:06:05.357Z,1.89
2023-03-30T00:11:13.402Z,2.17
2023-03-30T00:16:18.029Z,1.88
2023-03-30T00:21:22.231Z,3.01
2023-03-30T00:26:28.536Z,2.50
2023-03-30T00:31:32.716Z,2.66
2023-03-30T00:36:37.319Z,3.05
2023-03-30T00:41:43.282Z,2.11
2023-03-30T00:46:47.565Z,2.96
2023-03-30T00:51:51.832Z,2.05
2023-03-30T00:56:58.401Z,1.63
2023-03-30T01:02:02.644Z,2.36
2023-03-30T01:07:12.482Z,2.54
2023-03-30T01:12:18.140Z,2.29
2023-03-30T01:17:32.374Z,2.42
2023-03-30T01:22:52.846Z,1.98
2023-03-30T01:28:26.831Z,2.73
2023-03-30T01:33:59.211Z,3.19
2023-03-30T01:39:21.750Z,2.03
2023-03-30T01:44:34.282Z,2.98
2023-03-30T01:49:45.276Z,2.15
2023-03-30T01:54:58.024Z,2.29
2023-03-30T02:00:13.197Z,2.12
2023-03-30T02:05:21.063Z,2.42
2023-03-30T02:10:30.522Z,2.28
2023-03-30T02:15:37.629Z,1.88
2023-03-30T02:20:42.769Z,1.87
2023-03-30T02:25:48.486Z,1.50
2023-03-30T02:30:54.983Z,2.01
2023-03-30T02:36:18.925Z,1.99
2023-03-30T02:41:41.640Z,1.54
2023-03-30T02:47:01.701Z,1.29
2023-03-30T02:52:14.807Z,2.22
2023-03-30T02:57:37.767Z,2.11
2023-03-30T03:03:21.347Z,2.17
2023-03-30T03:08:34.150Z,2.47
2023-03-30T03:13:41.110Z,2.98
2023-03-30T03:18:46.201Z,3.19
2023-03-30T03:23:50.620Z,3.39
2023-03-30T03:28:59.955Z,3.70
2023-03-30T03:34:04.376Z,3.84
2023-03-30T03:39:37.540Z,3.93
2023-03-30T03:44:47.469Z,3.65
2023-03-30T03:49:51.856Z,4.08
2023-03-30T03:54:56.200Z,3.39
2023-03-30T04:00:01.962Z,3.53
2023-03-30T04:05:16.513Z,2.45
2023-03-30T04:10:21.792Z,2.98
2023-03-30T04:15:54.848Z,2.54
2023-03-30T04:21:29.923Z,3.37
2023-03-30T04:26:53.832Z,3.47
2023-03-30T04:32:06.835Z,3.32
2023-03-30T04:37:31.568Z,3.53
2023-03-30T04:42:54.730Z,4.01
2023-03-30T04:48:24.084Z,3.64
2023-03-30T04:53:45.838Z,3.73
2023-03-30T04:59:05.675Z,3.92
2023-03-30T05:04:32.549Z,3.87
2023-03-30T05:09:58.219Z,3.90
2023-03-30T05:15:07.486Z,4.14
2023-03-30T05:20:42.347Z,4.16
2023-03-30T05:26:01.155Z,4.67
2023-03-30T05:31:23.535Z,5.24
2023-03-30T05:36:47.943Z,5.26
2023-03-30T05:42:11.767Z,5.68
2023-03-30T05:47:20.982Z,4.73
2023-03-30T05:52:35.304Z,5.27
2023-03-30T05:57:59.855Z,5.11
2023-03-30T06:03:21.306Z,4.98
2023-03-30T06:08:27.710Z,5.68
2023-03-30T06:13:36.395Z,5.89
2023-03-30T06:18:41.113Z,5.38
2023-03-30T06:23:51.304Z,5.48
2023-03-30T06:28:59.133Z,5.14
2023-03-30T06:34:03.695Z,6.58
2023-03-30T06:39:09.799Z,7.16
2023-03-30T06:44:14.874Z,8.22
2023-03-30T06:49:32.574Z,7.03
2023-03-30T06:54:56.872Z,7.56
2023-03-30T07:00:02.789Z,7.61
2023-03-30T07:05:16.883Z,7.68
2023-03-30T07:10:33.348Z,8.00
2023-03-30T07:15:40.535Z,8.47
2023-03-30T07:20:46.187Z,8.57
2023-03-30T07:25:54.833Z,8.38
2023-03-30T07:31:17.358Z,8.71
2023-03-30T07:36:21.851Z,8.52
2023-03-30T07:41:27.846Z,8.54
2023-03-30T07:46:35.136Z,8.89
2023-03-30T07:51:39.793Z,8.13
2023-03-30T07:56:54.675Z,7.67
2023-03-30T08:01:59.487Z,7.52
2023-03-30T08:07:17.942Z,7.87
2023-03-30T08:12:25.784Z,8.26
2023-03-30T08:17:30.394Z,8.44
2023-03-30T08:22:34.675Z,8.95
2023-03-30T08:27:40.418Z,9.16
2023-03-30T08:32:44.770Z,10.21
2023-03-30T08:37:49.160Z,9.12
2023-03-30T08:43:23.774Z,10.28
2023-03-30T08:48:30.475Z,10.03
2023-03-30T08:53:35.970Z,9.55
2023-03-30T08:58:52.252Z,9.97
2023-03-30T09:04:10.417Z,9.71
2023-03-30T09:09:17.728Z,10.61
2023-03-30T09:14:32.776Z,9.88
2023-03-30T09:19:47.330Z,10.71
2023-03-30T09:24:52.638Z,11.22
2023-03-30T09:30:06.684Z,10.97
2023-03-30T09:35:16.098Z,11.06
2023-03-30T09:40:32.595Z,10.78
2023-03-30T09:45:39.019Z,10.63
2023-03-30T09:50:45.183Z,10.57
2023-03-30T09:56:10.355Z,9.80
2023-03-30T10:01:18.693Z,9.79
2023-03-30T10:06:24.801Z,10.36
2023-03-30T10:11:38.101Z,10.76
2023-03-30T10:16:45.956Z,10.71
2023-03-30T10:21:55.261Z,10.74
2023-03-30T10:27:03.820Z,11.88
2023-03-30T10:32:15.773Z,10.96
2023-03-30T10:37:25.614Z,11.19
2023-03-30T10:42:33.482Z,11.51
2023-03-30T10:47:51.215Z,11.63
2023-03-30T10:53:06.930Z,12.23
2023-03-30T10:58:21.322Z,12.49
2023-03-30T11:03:29.847Z,12.37
2023-03-30T11:08:39.474Z,12.30
2023-03-30T11:13:49.525Z,13.08
2023-03-30T11:18:58.452Z,12.74
2023-03-30T11:24:08.399Z,13.46
2023-03-30T11:29:27.191Z,12.54
2023-03-30T11:34:42.534Z,12.48
2023-03-30T11:39:52.928Z,11.90
2023-03-30T11:44:57.344Z,11.80
2023-03-30T11:50:15.013Z,10.95
2023-03-30T11:55:42.472Z,11.20
2023-03-30T12:00:56.249Z,11.29
2023-03-30T12:06:13.491Z,11.97
2023-03-30T12:11:27.478Z,12.72
2023-03-30T12:16:39.585Z,12.40
2023-03-30T12:21:55.520Z,13.13
2023-03-30T12:27:06.098Z,12.25
2023-03-30T12:32:23.854Z,11.96
2023-03-30T12:37:35.081Z,11.78
2023-03-30T12:42:46.521Z,12.26
2023-03-30T12:48:10.811Z,12.16
2023-03-30T12:53:35.185Z,11.41
2023-03-30T12:58:53.205Z,11.66
2023-03-30T13:04:00.886Z,11.96
2023-03-30T13:09:32.190Z,11.78
2023-03-30T13:14:47.264Z,12.17
2023-03-30T13:20:28.229Z,11.71
2023-03-30T13:25:46.624Z,11.55
2023-03-30T13:30:51.005Z,10.85
2023-03-30T13:36:06.400Z,11.17
2023-03-30T13:41:32.719Z,10.71
2023-03-30T13:46:44.585Z,10.79
2023-03-30T13:51:50.415Z,10.91
2023-03-30T13:57:00.842Z,10.93
2023-03-30T14:02:06.152Z,10.80
2023-03-30T14:07:17.404Z,10.45
2023-03-30T14:12:23.636Z,10.32
2023-03-30T14:17:28.102Z,9.62
2023-03-30T14:22:37.037Z,9.26
2023-03-30T14:27:42.777Z,8.86
2023-03-30T14:32:47.163Z,8.60
2023-03-30T14:37:52.273Z,8.76
2023-03-30T14:43:00.034Z,9.31
2023-03-30T14:48:04.360Z,9.01
2023-03-30T14:53:11.520Z,8.77
2023-03-30T14:58:17.693Z,8.74
2023-03-30T15:03:33.528Z,8.71
2023-03-30T15:08:40.710Z,8.82
2023-03-30T15:13:50.057Z,8.83
2023-03-30T15:19:04.742Z,8.80
2023-03-30T15:24:14.662Z,8.72
2023-03-30T15:29:21.129Z,8.47
2023-03-30T15:34:25.364Z,8.96
2023-03-30T15:39:34.879Z,8.50
2023-03-30T15:44:41.779Z,9.18
2023-03-30T15:49:50.688Z,8.90
2023-03-30T15:54:56.982Z,8.78
2023-03-30T16:00:06.678Z,9.01
2023-03-30T16:05:22.439Z,8.79
2023-03-30T16:10:28.913Z,8.66
2023-03-30T16:15:35.056Z,8.61
2023-03-30T16:20:39.481Z,8.62
2023-03-30T16:25:45.030Z,8.80
2023-03-30T16:30:53.759Z,8.50
2023-03-30T16:35:58.178Z,8.14
2023-03-30T16:41:03.159Z,8.62
2023-03-30T16:46:11.159Z,8.01
2023-03-30T16:51:16.547Z,8.68
2023-03-30T16:56:21.795Z,8.29
2023-03-30T17:01:28.567Z,8.24
2023-03-30T17:06:32.809Z,8.44
2023-03-30T17:11:37.023Z,8.32
2023-03-30T17:16:43.011Z,8.46
2023-03-30T17:21:46.956Z,8.23
2023-03-30T17:26:51.293Z,7.84
2023-03-30T17:31:56.843Z,8.74
2023-03-30T17:37:01.263Z,8.70
2023-03-30T17:42:06.087Z,8.49
2023-03-30T17:47:11.786Z,8.25
2023-03-30T17:52:16.889Z,8.76
2023-03-30T17:57:21.128Z,8.89
2023-03-30T18:02:26.913Z,8.63
2023-03-30T18:07:33.609Z,8.88
2023-03-30T18:12:38.058Z,8.89
2023-03-30T18:17:44.166Z,8.82
2023-03-30T18:22:48.223Z,8.83
2023-03-30T18:27:52.730Z,9.18
2023-03-30T18:32:59.835Z,8.77
2023-03-30T18:38:05.107Z,8.61
2023-03-30T18:43:09.724Z,8.50
2023-03-30T18:48:16.959Z,8.95
2023-03-30T18:53:22.999Z,8.89
2023-03-30T18:58:28.992Z,8.48
2023-03-30T19:03:34.860Z,8.30
2023-03-30T19:08:38.769Z,8.88
2023-03-30T19:13:42.871Z,8.72
2023-03-30T19:18:49.569Z,8.60
2023-03-30T19:23:55.191Z,8.76
2023-03-30T19:28:59.380Z,8.73
2023-03-30T19:34:04.942Z,8.78
2023-03-30T19:39:09.558Z,8.58
2023-03-30T19:44:13.902Z,8.97
2023-03-30T19:49:19.468Z,8.77
2023-03-30T19:54:23.812Z,8.53
2023-03-30T19:59:28.822Z,8.28
2023-03-30T20:04:34.394Z,8.11
2023-03-30T20:09:38.871Z,7.94
2023-03-30T20:14:43.211Z,7.50
2023-03-30T20:19:48.856Z,7.60
2023-03-30T20:24:53.144Z,7.35
2023-03-30T20:29:57.464Z,6.99
2023-03-30T20:35:03.396Z,6.79
2023-03-30T20:40:09.993Z,6.91
2023-03-30T20:45:15.071Z,6.87
2023-03-30T20:50:20.894Z,6.68
2023-03-30T20:55:25.011Z,6.57
2023-03-30T21:00:29.166Z,6.51
2023-03-30T21:05:34.853Z,6.54
2023-03-30T21:10:42.527Z,6.64
2023-03-30T21:15:46.754Z,7.00
2023-03-30T21:20:52.372Z,6.60
2023-03-30T21:25:58.438Z,7.02
2023-03-30T21:31:07.746Z,6.59
2023-03-30T21:36:13.828Z,6.70
2023-03-30T21:41:18.401Z,6.71
2023-03-30T21:46:24.215Z,6.79
2023-03-30T21:51:31.731Z,6.79
2023-03-30T21:56:36.240Z,6.66
2023-03-30T22:01:40.563Z,6.89
2023-03-30T22:06:46.151Z,6.65
2023-03-30T22:11:52.595Z,6.76
2023-03-30T22:16:58.074Z,6.82
2023-03-30T22:22:04.853Z,6.26
2023-03-30T22:27:09.245Z,6.34
2023-03-30T22:32:14.080Z,6.31
2023-03-30T22:37:19.732Z,6.30
2023-03-30T22:42:24.113Z,6.04
2023-03-30T22:47:28.425Z,6.78
2023-03-30T22:52:34.137Z,6.49
2023-03-30T22:57:38.684Z,6.60
2023-03-30T23:02:42.906Z,6.76
2023-03-30T23:07:49.403Z,6.75
2023-03-30T23:12:53.759Z,6.95
2023-03-30T23:17:57.991Z,6.39
2023-03-30T23:23:03.655Z,6.73
2023-03-30T23:28:07.869Z,6.68
2023-03-30T23:33:13.489Z,6.79
2023-03-30T23:38:19.201Z,7.24
2023-03-30T23:43:23.845Z,7.34
2023-03-30T23:48:28.245Z,7.38
2023-03-30T23:53:34.246Z,7.67
2023-03-30T23:58:38.372Z,7.28
